Time;durP1;ratioP1;P1;durP2;ratioP2;P2;SDS_P1;SDS_P2;PMS_P1;PMS_P2;Temp;Humidity;BMP_temperature;BMP_pressure;BME280_temperature;BME280_humidity;BME280_pressure;Samples;Min_cycle;Max_cycle;Signal;HPM_P1;HPM_P2
2023/07/12 00:00:19;;;;;;;4.63;2.95;;;18.60;99.90;;;;;;5085420;28;20052;-79
2023/07/12 00:02:45;;;;;;;2.75;2.55;;;18.50;99.90;;;;;;5086921;28;20486;-79
2023/07/12 00:05:10;;;;;;;4.13;2.95;;;18.50;99.90;;;;;;5070408;28;20044;-79
2023/07/12 00:07:36;;;;;;;5.45;3.08;;;18.40;99.90;;;;;;5099011;28;20066;-79
2023/07/12 00:10:02;;;;;;;7.95;2.92;;;18.40;99.90;;;;;;5092595;28;20048;-79
2023/07/12 00:12:28;;;;;;;3.45;3.00;;;18.40;99.90;;;;;;5088396;28;20120;-79
2023/07/12 00:14:53;;;;;;;4.03;3.00;;;18.70;99.90;;;;;;5095979;28;20185;-79
2023/07/12 00:17:21;;;;;;;3.88;3.33;;;18.40;99.90;;;;;;5093332;28;20119;-79
2023/07/12 00:19:47;;;;;;;4.57;3.08;;;18.30;99.90;;;;;;5103065;28;20556;-79
2023/07/12 00:22:12;;;;;;;4.75;2.90;;;18.40;99.90;;;;;;5100751;28;20119;-79
2023/07/12 00:24:38;;;;;;;5.18;3.17;;;18.40;99.90;;;;;;5095167;28;20048;-79
2023/07/12 00:27:04;;;;;;;4.53;3.00;;;18.40;99.90;;;;;;5088893;28;20135;-79
2023/07/12 00:29:29;;;;;;;3.40;3.10;;;18.40;99.90;;;;;;5103200;28;20050;-79
2023/07/12 00:31:55;;;;;;;4.70;3.38;;;18.40;99.90;;;;;;5095944;28;20579;-79
2023/07/12 00:34:23;;;;;;;3.78;3.30;;;18.40;99.90;;;;;;5088123;28;20066;-79
2023/07/12 00:36:49;;;;;;;3.35;3.03;;;18.40;99.90;;;;;;5087847;28;20048;-79
2023/07/12 00:39:14;;;;;;;3.97;3.53;;;18.40;99.90;;;;;;5091255;28;20055;-79
2023/07/12 00:42:04;;;;;;;4.13;3.05;;;18.40;99.90;;;;;;5091294;28;20039;-79
2023/07/12 00:44:41;;;;;;;4.78;3.75;;;18.40;99.90;;;;;;5088172;28;20051;-79
2023/07/12 00:47:11;;;;;;;3.72;3.25;;;18.30;99.90;;;;;;5087900;28;20043;-79
2023/07/12 00:49:37;;;;;;;5.00;3.17;;;18.30;99.90;;;;;;5094480;28;20052;-79
2023/07/12 00:52:13;;;;;;;3.90;3.17;;;18.70;99.90;;;;;;5075559;28;20579;-79
2023/07/12 00:54:51;;;;;;;3.08;2.78;;;18.30;99.90;;;;;;5093287;28;20097;-79
2023/07/12 00:57:17;;;;;;;3.60;3.30;;;18.20;99.90;;;;;;5088058;28;20468;-79
2023/07/12 00:59:43;;;;;;;4.00;2.97;;;18.30;99.90;;;;;;5086915;28;20513;-79
2023/07/12 01:02:09;;;;;;;3.35;3.05;;;18.20;99.90;;;;;;5085998;28;20052;-79
2023/07/12 01:04:42;;;;;;;3.40;3.10;;;18.20;99.90;;;;;;5100668;28;20044;-79
2023/07/12 01:07:09;;;;;;;3.25;2.72;;;18.30;99.90;;;;;;5072046;28;20127;-78
2023/07/12 01:09:34;;;;;;;3.15;2.85;;;18.60;99.90;;;;;;5091382;28;20101;-78
2023/07/12 01:12:01;;;;;;;3.22;2.92;;;18.20;99.90;;;;;;5086787;28;20044;-79
2023/07/12 01:14:27;;;;;;;4.40;3.25;;;18.20;99.90;;;;;;5070965;28;20040;-79
2023/07/12 01:17:02;;;;;;;4.57;2.83;;;18.20;99.90;;;;;;5087166;28;20054;-79
2023/07/12 01:19:28;;;;;;;3.35;2.85;;;18.20;99.90;;;;;;5083531;28;20090;-79
2023/07/12 01:21:55;;;;;;;3.13;2.85;;;18.60;99.90;;;;;;5069883;28;20585;-79
2023/07/12 01:24:24;;;;;;;4.78;2.97;;;18.10;99.90;;;;;;5090802;28;20047;-79
2023/07/12 01:26:53;;;;;;;3.60;3.20;;;18.10;99.90;;;;;;5093084;28;20097;-79
2023/07/12 01:29:20;;;;;;;3.78;3.08;;;18.10;99.90;;;;;;5100742;28;20052;-79
2023/07/12 01:31:49;;;;;;;4.80;2.90;;;18.10;99.90;;;;;;5086621;28;20055;-79
2023/07/12 01:34:16;;;;;;;4.15;2.85;;;18.00;99.90;;;;;;5086577;28;20767;-79
2023/07/12 01:36:42;;;;;;;3.47;3.08;;;18.00;99.90;;;;;;5073822;28;20059;-79
2023/07/12 01:39:08;;;;;;;5.47;3.15;;;18.00;99.90;;;;;;5093166;28;20071;-79
2023/07/12 01:41:34;;;;;;;3.92;2.95;;;18.00;99.90;;;;;;5086847;28;20494;-79
2023/07/12 01:44:00;;;;;;;4.35;3.05;;;18.00;99.90;;;;;;5087191;28;20124;-79
2023/07/12 01:46:26;;;;;;;3.45;2.60;;;18.30;99.90;;;;;;5087497;28;20518;-79
2023/07/12 01:48:52;;;;;;;3.90;3.25;;;17.90;99.90;;;;;;5096098;28;20059;-79
2023/07/12 01:51:19;;;;;;;4.90;3.00;;;17.90;99.90;;;;;;5101870;28;20048;-79
2023/07/12 01:53:44;;;;;;;4.00;3.17;;;17.90;99.90;;;;;;5086433;28;20056;-80
2023/07/12 01:56:13;;;;;;;5.20;3.05;;;17.80;99.90;;;;;;5088600;28;20961;-79
2023/07/12 01:58:39;;;;;;;4.85;2.80;;;17.90;99.90;;;;;;5092093;28;20047;-79
2023/07/12 02:01:04;;;;;;;5.60;3.40;;;17.80;99.90;;;;;;5086455;28;20044;-79
2023/07/12 02:03:33;;;;;;;3.17;2.80;;;17.70;99.90;;;;;;5092386;28;20063;-79
2023/07/12 02:05:59;;;;;;;3.33;3.03;;;17.70;99.90;;;;;;5094656;28;20048;-79
2023/07/12 02:08:25;;;;;;;4.03;3.20;;;17.70;99.90;;;;;;5086335;28;20044;-79
2023/07/12 02:10:51;;;;;;;4.65;3.15;;;17.60;99.90;;;;;;5070298;28;20108;-79
2023/07/12 02:13:17;;;;;;;3.30;2.92;;;17.60;99.90;;;;;;5088586;28;20138;-79
2023/07/12 02:15:43;;;;;;;4.63;3.00;;;17.70;99.90;;;;;;5086291;28;20083;-79
2023/07/12 02:18:11;;;;;;;4.18;3.50;;;17.50;99.90;;;;;;5087383;28;20040;-80
2023/07/12 02:20:37;;;;;;;3.83;3.22;;;17.40;99.90;;;;;;5086313;28;20043;-79
2023/07/12 02:23:02;;;;;;;4.05;3.42;;;17.50;99.90;;;;;;5090417;28;20385;-79
2023/07/12 02:25:28;;;;;;;5.70;3.40;;;17.40;99.90;;;;;;5101292;28;20044;-80
2023/07/12 02:27:54;;;;;;;4.75;3.25;;;17.40;99.90;;;;;;5079822;28;20386;-80
2023/07/12 02:30:23;;;;;;;4.90;3.53;;;17.40;99.90;;;;;;5088529;28;20036;-80
2023/07/12 02:32:49;;;;;;;7.70;3.65;;;17.40;99.90;;;;;;5086569;28;20048;-80
2023/07/12 02:35:16;;;;;;;6.88;3.70;;;17.30;99.90;;;;;;5098938;28;20047;-80
2023/07/12 02:37:45;;;;;;;5.05;3.17;;;17.40;99.90;;;;;;5088941;28;20051;-80
2023/07/12 02:40:12;;;;;;;5.60;3.40;;;17.50;99.90;;;;;;5098565;28;20036;-80
2023/07/12 02:42:38;;;;;;;4.93;3.17;;;17.40;99.90;;;;;;5095600;28;20382;-80
2023/07/12 02:45:05;;;;;;;6.07;3.72;;;17.30;99.90;;;;;;5090800;28;20040;-80
2023/07/12 02:47:31;;;;;;;5.03;3.42;;;17.30;99.90;;;;;;5086787;28;20119;-80
2023/07/12 02:49:56;;;;;;;10.25;4.18;;;17.40;99.90;;;;;;5085774;28;20127;-80
2023/07/12 02:52:22;;;;;;;6.30;3.60;;;17.30;99.90;;;;;;5086676;28;20074;-80
2023/07/12 02:54:47;;;;;;;5.43;3.35;;;17.90;99.90;;;;;;5093888;28;20138;-80
2023/07/12 02:57:14;;;;;;;7.03;3.40;;;17.30;99.90;;;;;;5096117;28;21208;-80
2023/07/12 02:59:40;;;;;;;5.15;3.20;;;17.30;99.90;;;;;;5101111;28;20040;-80
2023/07/12 03:02:08;;;;;;;9.60;4.18;;;17.40;99.90;;;;;;5089652;28;20081;-80
2023/07/12 03:04:34;;;;;;;6.43;3.70;;;17.30;99.90;;;;;;5089862;28;20435;-80
2023/07/12 03:07:00;;;;;;;7.80;3.72;;;17.30;99.90;;;;;;5097365;28;20558;-80
2023/07/12 03:09:25;;;;;;;9.05;3.58;;;17.30;99.90;;;;;;5089279;28;20044;-80
2023/07/12 03:11:51;;;;;;;6.90;3.80;;;17.30;99.90;;;;;;5088768;28;20390;-80
2023/07/12 03:14:18;;;;;;;7.18;4.30;;;17.30;99.90;;;;;;5087062;28;20081;-80
2023/07/12 03:16:45;;;;;;;6.13;4.03;;;17.30;99.90;;;;;;5072670;28;20047;-80
2023/07/12 03:19:11;;;;;;;11.77;4.15;;;17.20;99.90;;;;;;5094147;28;20069;-79
2023/07/12 03:21:37;;;;;;;5.72;4.00;;;17.30;99.90;;;;;;5100921;28;20529;-80
2023/07/12 03:24:02;;;;;;;6.72;4.30;;;17.20;99.90;;;;;;5087365;28;20262;-80
2023/07/12 03:26:28;;;;;;;5.85;3.90;;;17.60;99.90;;;;;;5090265;28;20460;-80
2023/07/12 03:28:55;;;;;;;5.70;4.25;;;17.20;99.90;;;;;;5088541;28;20112;-79
2023/07/12 03:31:22;;;;;;;8.77;4.38;;;17.20;99.90;;;;;;5070959;28;20044;-80
2023/07/12 03:33:48;;;;;;;7.97;4.05;;;17.20;99.90;;;;;;5086272;28;20522;-80
2023/07/12 03:36:14;;;;;;;6.40;3.97;;;17.80;99.90;;;;;;5088878;28;20048;-81
2023/07/12 03:38:40;;;;;;;5.35;4.28;;;17.20;99.90;;;;;;5072203;28;20123;-80
2023/07/12 03:41:08;;;;;;;5.50;4.05;;;17.20;99.90;;;;;;5085745;28;20154;-79
2023/07/12 03:43:34;;;;;;;8.13;4.40;;;17.20;99.90;;;;;;5087062;28;20498;-80
2023/07/12 03:46:00;;;;;;;7.07;4.03;;;17.40;99.90;;;;;;5098278;28;20074;-79
2023/07/12 03:48:26;;;;;;;9.52;4.60;;;17.20;99.90;;;;;;5107363;28;20436;-79
2023/07/12 03:50:55;;;;;;;9.02;4.72;;;17.10;99.90;;;;;;5092521;28;20052;-80
2023/07/12 03:53:21;;;;;;;8.65;3.90;;;17.00;99.90;;;;;;5101720;28;20119;-80
2023/07/12 03:55:47;;;;;;;5.45;4.30;;;17.10;99.90;;;;;;5086754;28;20082;-80
2023/07/12 03:58:17;;;;;;;7.63;4.07;;;17.00;99.90;;;;;;5097590;28;20069;-79
2023/07/12 04:00:45;;;;;;;6.13;4.15;;;17.00;99.90;;;;;;5096167;28;20402;-80
2023/07/12 04:03:11;;;;;;;13.05;4.45;;;17.10;99.90;;;;;;5088359;28;20040;-79
2023/07/12 04:05:38;;;;;;;13.00;4.22;;;17.20;99.90;;;;;;5070867;28;20071;-80
2023/07/12 04:08:04;;;;;;;8.80;4.05;;;16.80;99.90;;;;;;5071272;28;20036;-80
2023/07/12 04:10:30;;;;;;;10.27;4.13;;;16.90;99.90;;;;;;5087673;28;20048;-80
2023/07/12 04:12:56;;;;;;;8.57;4.10;;;16.90;99.90;;;;;;5086880;28;20048;-80
2023/07/12 04:15:22;;;;;;;8.73;4.32;;;16.90;99.90;;;;;;5068997;28;20047;-80
2023/07/12 04:17:48;;;;;;;7.68;3.75;;;16.90;99.90;;;;;;5087347;28;20456;-80
2023/07/12 04:20:14;;;;;;;6.18;3.75;;;16.90;99.90;;;;;;5072934;28;20042;-80
2023/07/12 04:22:40;;;;;;;8.40;3.95;;;16.80;99.90;;;;;;5109088;28;20066;-80
2023/07/12 04:25:10;;;;;;;8.80;4.10;;;16.80;99.90;;;;;;5087568;28;20412;-80
2023/07/12 04:27:37;;;;;;;8.38;4.28;;;16.90;99.90;;;;;;5088832;28;20046;-80
2023/07/12 04:30:05;;;;;;;8.52;4.10;;;16.80;99.90;;;;;;5096098;28;20417;-80
2023/07/12 04:32:30;;;;;;;8.93;4.47;;;16.90;99.90;;;;;;5095461;28;20060;-80
2023/07/12 04:34:56;;;;;;;9.50;4.10;;;16.90;99.90;;;;;;5076128;28;20043;-80
2023/07/12 04:37:22;;;;;;;8.60;3.95;;;16.90;99.90;;;;;;5092165;28;20032;-80
2023/07/12 04:39:47;;;;;;;10.00;4.15;;;16.90;99.90;;;;;;5086614;28;20040;-80
2023/07/12 04:42:13;;;;;;;8.55;4.25;;;16.90;99.90;;;;;;5088473;28;20040;-80
2023/07/12 04:44:39;;;;;;;9.27;4.00;;;16.90;99.90;;;;;;5097373;28;20122;-80
2023/07/12 04:47:06;;;;;;;9.63;4.50;;;16.90;99.90;;;;;;5097270;28;20190;-80
2023/07/12 04:49:32;;;;;;;11.25;4.75;;;16.90;99.90;;;;;;5092024;28;20070;-80
2023/07/12 04:51:58;;;;;;;8.98;3.75;;;16.90;99.90;;;;;;5088829;28;20502;-79
2023/07/12 04:54:24;;;;;;;9.48;3.80;;;16.90;99.90;;;;;;5070496;28;20048;-80
2023/07/12 04:56:50;;;;;;;9.20;4.00;;;16.90;99.90;;;;;;5091982;28;20047;-81
2023/07/12 04:59:15;;;;;;;10.07;4.80;;;16.90;99.90;;;;;;5104787;28;20107;-81
2023/07/12 05:01:42;;;;;;;8.40;4.05;;;17.00;99.90;;;;;;5103639;28;20100;-80
2023/07/12 05:04:08;;;;;;;9.95;4.35;;;17.20;99.90;;;;;;5108384;28;20067;-81
2023/07/12 05:06:34;;;;;;;11.13;4.60;;;17.00;99.90;;;;;;5098911;28;20133;-81
2023/07/12 05:08:59;;;;;;;8.95;4.22;;;17.00;99.90;;;;;;5089572;28;20040;-82
2023/07/12 05:11:25;;;;;;;9.07;4.13;;;17.10;99.90;;;;;;5090261;28;20055;-81
2023/07/12 05:13:50;;;;;;;8.10;4.55;;;17.60;99.90;;;;;;5071240;28;20379;-81
2023/07/12 05:16:16;;;;;;;7.68;3.88;;;17.00;99.90;;;;;;5087736;28;20097;-81
2023/07/12 05:18:42;;;;;;;6.75;3.90;;;17.10;99.90;;;;;;5093526;28;20066;-81
2023/07/12 05:21:08;;;;;;;7.78;3.60;;;17.00;99.90;;;;;;5108821;28;20394;-80
2023/07/12 05:23:36;;;;;;;7.20;3.70;;;17.20;99.90;;;;;;5103263;28;20039;-82
2023/07/12 05:26:02;;;;;;;10.65;4.55;;;17.20;99.90;;;;;;5107829;28;20056;-81
2023/07/12 05:28:28;;;;;;;8.02;4.53;;;17.40;99.90;;;;;;5108257;28;20035;-81
2023/07/12 05:30:53;;;;;;;7.88;4.25;;;17.80;99.90;;;;;;5108305;28;20059;-80
2023/07/12 05:33:19;;;;;;;8.48;4.30;;;17.50;99.90;;;;;;5096836;28;20036;-82
2023/07/12 05:35:46;;;;;;;10.30;5.00;;;17.50;99.90;;;;;;5088033;28;20048;-83
2023/07/12 05:38:12;;;;;;;7.15;4.07;;;17.50;99.90;;;;;;5087738;28;20043;-81
2023/07/12 05:40:38;;;;;;;9.70;4.60;;;17.40;99.90;;;;;;5088272;28;20040;-82
2023/07/12 05:43:04;;;;;;;6.65;4.20;;;17.40;99.90;;;;;;5107503;28;20036;-84
2023/07/12 05:45:29;;;;;;;10.27;4.75;;;17.40;99.90;;;;;;5100261;28;20505;-82
2023/07/12 05:47:55;;;;;;;7.38;4.80;;;17.40;99.90;;;;;;5089313;28;20047;-82
2023/07/12 05:50:21;;;;;;;10.55;5.05;;;17.40;99.90;;;;;;5105631;28;20055;-82
2023/07/12 05:52:47;;;;;;;9.02;5.63;;;17.50;99.90;;;;;;5107361;28;20048;-79
2023/07/12 05:55:17;;;;;;;12.13;5.28;;;17.50;99.90;;;;;;5106351;28;20046;-80
2023/07/12 05:57:44;;;;;;;12.52;5.35;;;17.70;99.90;;;;;;5107846;28;20058;-81
2023/07/12 06:00:11;;;;;;;9.75;5.28;;;17.90;99.90;;;;;;5104788;28;20040;-80
2023/07/12 06:02:40;;;;;;;9.55;5.28;;;18.00;99.90;;;;;;5095720;28;20044;-81
2023/07/12 06:05:07;;;;;;;10.65;5.55;;;18.30;99.90;;;;;;5089395;28;20436;-82
2023/07/12 06:07:33;;;;;;;8.57;5.70;;;18.40;99.90;;;;;;5092042;28;20040;-81
2023/07/12 06:09:59;;;;;;;8.27;5.22;;;18.40;99.90;;;;;;5088259;28;20051;-83
2023/07/12 06:12:25;;;;;;;9.63;5.10;;;18.40;99.90;;;;;;5073905;28;20039;-83
2023/07/12 06:14:54;;;;;;;10.60;5.53;;;18.30;99.90;;;;;;5109123;28;20055;-82
2023/07/12 06:17:20;;;;;;;12.50;5.43;;;18.20;99.90;;;;;;5089908;28;20046;-81
2023/07/12 06:19:45;;;;;;;11.43;5.65;;;18.10;99.90;;;;;;5089485;28;20044;-81
2023/07/12 06:22:11;;;;;;;11.73;5.68;;;18.00;99.90;;;;;;5087373;28;20044;-81
2023/07/12 06:24:37;;;;;;;12.35;5.97;;;18.00;99.90;;;;;;5087564;28;20101;-81
2023/07/12 06:27:02;;;;;;;13.70;6.32;;;18.00;99.90;;;;;;5087524;28;20849;-80
2023/07/12 06:29:29;;;;;;;14.73;5.70;;;17.90;99.90;;;;;;5087172;28;20478;-79
2023/07/12 06:31:55;;;;;;;9.25;6.32;;;17.80;99.90;;;;;;5070617;28;20040;-79
2023/07/12 06:34:21;;;;;;;10.68;6.07;;;18.40;99.90;;;;;;5089181;28;20040;-80
2023/07/12 06:36:47;;;;;;;11.10;6.15;;;17.80;99.90;;;;;;5092568;28;20087;-80
2023/07/12 06:39:12;;;;;;;10.18;5.80;;;18.00;99.90;;;;;;5091084;28;20091;-79
2023/07/12 06:41:38;;;;;;;10.15;6.32;;;18.10;99.90;;;;;;5090738;28;20048;-80
2023/07/12 06:44:04;;;;;;;12.43;6.10;;;18.30;99.90;;;;;;5091317;28;20051;-79
2023/07/12 06:46:29;;;;;;;11.02;5.97;;;18.60;99.90;;;;;;5090639;28;20044;-80
2023/07/12 06:48:55;;;;;;;11.27;6.45;;;18.70;99.90;;;;;;5092498;28;20166;-80
2023/07/12 06:51:21;;;;;;;13.20;6.78;;;18.90;99.90;;;;;;5089892;28;20509;-81
2023/07/12 06:53:48;;;;;;;8.73;5.85;;;19.00;99.90;;;;;;5073188;28;20124;-79
2023/07/12 06:56:13;;;;;;;10.65;6.18;;;19.00;99.90;;;;;;5090643;28;20097;-80
2023/07/12 06:58:39;;;;;;;9.77;5.68;;;19.00;99.90;;;;;;5074061;28;20473;-80
2023/07/12 07:01:09;;;;;;;9.38;5.93;;;18.90;99.90;;;;;;5090316;28;20051;-80
2023/07/12 07:03:35;;;;;;;11.05;6.43;;;19.00;99.90;;;;;;5091930;28;20036;-80
2023/07/12 07:06:00;;;;;;;11.82;5.90;;;19.20;99.90;;;;;;5091649;28;20032;-79
2023/07/12 07:08:27;;;;;;;12.32;5.22;;;19.30;99.90;;;;;;5073298;28;20040;-78
2023/07/12 07:10:53;;;;;;;8.30;5.03;;;19.60;99.90;;;;;;5073473;28;20055;-80
2023/07/12 07:13:22;;;;;;;10.48;5.07;;;19.90;99.90;;;;;;5074029;28;20062;-79
2023/07/12 07:15:48;;;;;;;10.60;5.30;;;19.90;99.90;;;;;;5090231;28;20060;-80
2023/07/12 07:18:14;;;;;;;9.40;5.05;;;19.70;99.90;;;;;;5090180;28;20422;-79
2023/07/12 07:20:40;;;;;;;9.27;4.65;;;19.70;99.90;;;;;;5090269;28;20040;-79
2023/07/12 07:23:06;;;;;;;10.30;4.65;;;19.50;99.90;;;;;;5072682;28;20077;-79
2023/07/12 07:25:31;;;;;;;9.50;4.90;;;19.40;99.90;;;;;;5088475;28;20032;-80
2023/07/12 07:27:57;;;;;;;8.15;4.85;;;19.30;99.90;;;;;;5072713;28;20044;-80
2023/07/12 07:30:23;;;;;;;7.57;4.47;;;19.30;99.90;;;;;;5088557;28;20044;-81
2023/07/12 07:32:49;;;;;;;8.23;5.05;;;19.30;99.90;;;;;;5090411;28;20089;-78
2023/07/12 07:35:15;;;;;;;7.47;4.82;;;19.70;99.90;;;;;;5102487;28;20128;-79
2023/07/12 07:37:42;;;;;;;12.15;5.53;;;19.50;99.90;;;;;;5110513;28;20044;-80
2023/07/12 07:40:08;;;;;;;10.02;5.78;;;19.60;99.90;;;;;;5108874;28;20051;-80
2023/07/12 07:42:35;;;;;;;8.57;5.30;;;19.80;99.90;;;;;;5110065;28;20492;-81
2023/07/12 07:45:00;;;;;;;10.00;4.68;;;20.00;99.90;;;;;;5092167;28;20055;-80
2023/07/12 07:47:26;;;;;;;11.57;5.90;;;20.20;99.90;;;;;;5109131;28;20402;-81
2023/07/12 07:49:52;;;;;;;10.00;4.95;;;20.30;99.90;;;;;;5089510;28;20122;-79
2023/07/12 07:52:18;;;;;;;10.48;4.68;;;20.50;99.90;;;;;;5108821;28;20055;-80
2023/07/12 07:54:44;;;;;;;8.38;4.70;;;20.70;99.90;;;;;;5109804;28;20527;-80
2023/07/12 07:57:09;;;;;;;13.82;4.97;;;20.90;99.90;;;;;;5108796;28;20152;-80
2023/07/12 07:59:35;;;;;;;7.22;4.57;;;20.90;99.90;;;;;;5101249;28;20047;-79
2023/07/12 08:02:01;;;;;;;6.80;4.63;;;21.00;99.90;;;;;;5088554;28;20044;-79
2023/07/12 08:04:27;;;;;;;7.82;3.60;;;21.20;99.90;;;;;;5087861;28;20517;-80
2023/07/12 08:06:52;;;;;;;8.27;4.18;;;21.00;99.90;;;;;;5088377;28;20508;-79
2023/07/12 08:09:18;;;;;;;6.82;3.60;;;20.90;99.90;;;;;;5071216;28;20048;-79
2023/07/12 08:11:43;;;;;;;8.77;3.47;;;21.30;99.90;;;;;;5071571;28;20052;-81
2023/07/12 08:14:09;;;;;;;8.82;3.90;;;21.30;99.90;;;;;;5074856;28;20039;-80
2023/07/12 08:16:36;;;;;;;6.55;3.92;;;21.30;99.90;;;;;;5091805;28;20039;-82
2023/07/12 08:19:03;;;;;;;6.70;3.45;;;21.50;99.90;;;;;;5110734;28;20532;-83
2023/07/12 08:21:29;;;;;;;8.75;3.47;;;21.70;99.90;;;;;;5094002;28;20935;-83
2023/07/12 08:23:57;;;;;;;7.47;3.40;;;21.80;99.90;;;;;;5111875;28;20047;-82
2023/07/12 08:26:23;;;;;;;9.23;3.28;;;21.80;99.90;;;;;;5108030;28;20421;-81
2023/07/12 08:28:49;;;;;;;8.43;3.75;;;22.00;99.90;;;;;;5093071;28;20047;-83
2023/07/12 08:31:15;;;;;;;10.15;4.22;;;22.00;99.90;;;;;;5112512;28;20462;-84
2023/07/12 08:33:43;;;;;;;7.22;3.55;;;21.90;99.90;;;;;;5093543;28;20035;-84
2023/07/12 08:36:12;;;;;;;8.23;3.50;;;21.80;99.90;;;;;;5111055;28;20085;-85
2023/07/12 08:38:38;;;;;;;8.13;4.60;;;21.30;99.90;;;;;;5112654;28;20082;-83
2023/07/12 08:41:15;;;;;;;8.43;3.67;;;21.80;99.90;;;;;;5110689;28;20548;-83
2023/07/12 08:43:41;;;;;;;7.28;3.85;;;21.50;99.90;;;;;;5096157;28;20524;-83
2023/07/12 08:46:23;;;;;;;7.80;3.00;;;21.60;99.90;;;;;;5112043;28;20039;-84
2023/07/12 08:48:54;;;;;;;7.53;3.20;;;21.80;99.90;;;;;;5112353;27;20499;-83
2023/07/12 08:51:39;;;;;;;9.02;3.70;;;22.00;99.90;;;;;;5092517;28;20093;-82
2023/07/12 08:54:05;;;;;;;6.88;3.80;;;21.90;99.90;;;;;;5089270;28;20052;-80
2023/07/12 08:56:31;;;;;;;9.05;3.95;;;21.80;99.90;;;;;;5087948;28;20046;-82
2023/07/12 08:58:57;;;;;;;7.28;4.68;;;21.50;99.90;;;;;;5088143;28;20040;-82
2023/07/12 09:01:44;;;;;;;8.05;4.63;;;21.60;99.90;;;;;;5071204;28;20520;-83
2023/07/12 09:04:26;;;;;;;6.05;4.07;;;20.70;99.90;;;;;;5090967;28;20105;-82
2023/07/12 09:06:57;;;;;;;6.68;4.30;;;20.20;99.90;;;;;;5106709;28;20082;-80
2023/07/12 09:09:23;;;;;;;9.00;5.10;;;20.10;99.90;;;;;;5108450;28;20054;-81
2023/07/12 09:11:49;;;;;;;8.48;4.40;;;20.40;99.90;;;;;;5109790;28;20062;-81
2023/07/12 09:14:21;;;;;;;9.57;5.00;;;19.90;99.90;;;;;;5109646;28;20196;-81
2023/07/12 09:16:47;;;;;;;;;;;20.00;99.90;;;;;;5109287;28;20080;-82
2023/07/12 09:19:22;;;;;;;8.95;5.20;;;19.60;99.90;;;;;;5109670;28;19947;-81
2023/07/12 09:21:56;;;;;;;9.23;4.93;;;20.00;99.90;;;;;;5107713;28;20482;-81
2023/07/12 09:24:27;;;;;;;8.55;5.07;;;20.20;99.90;;;;;;5108477;28;20047;-81
2023/07/12 09:27:05;;;;;;;7.70;4.55;;;20.30;99.90;;;;;;5108065;28;20127;-80
2023/07/12 09:29:33;;;;;;;10.20;4.85;;;20.50;99.90;;;;;;5108413;28;20378;-80
2023/07/12 09:32:19;;;;;;;8.80;4.60;;;20.80;99.90;;;;;;5108204;28;20501;-81
2023/07/12 09:34:47;;;;;;;6.35;4.47;;;20.80;99.90;;;;;;5109048;28;20147;-81
2023/07/12 09:37:21;;;;;;;8.45;4.25;;;21.10;99.90;;;;;;5089327;28;20070;-80
2023/07/12 09:40:00;;;;;;;9.15;4.40;;;21.40;99.90;;;;;;5109257;28;20039;-82
2023/07/12 09:42:29;;;;;;;9.43;4.50;;;21.40;99.90;;;;;;5090543;28;20047;-81
2023/07/12 09:44:55;;;;;;;9.23;4.22;;;21.30;99.90;;;;;;5088555;28;20480;-81
2023/07/12 09:47:45;;;;;;;8.77;3.83;;;21.30;99.90;;;;;;5104717;28;20070;-82
2023/07/12 09:50:22;;;;;;;8.75;3.97;;;21.10;99.90;;;;;;5086256;28;20537;-83
2023/07/12 09:53:01;;;;;;;8.68;3.50;;;21.20;99.90;;;;;;5101364;28;20526;-82
2023/07/12 09:55:57;;;;;;;6.55;2.90;;;21.30;99.90;;;;;;5084189;28;20521;-81
2023/07/12 09:58:40;;;;;;;5.10;2.15;;;21.40;99.90;;;;;;5102525;28;20039;-82
2023/07/12 10:01:27;;;;;;;4.78;2.45;;;21.10;99.90;;;;;;5086675;28;20040;-81
2023/07/12 10:04:00;;;;;;;5.35;2.33;;;21.00;99.90;;;;;;5085504;28;20075;-82
2023/07/12 10:06:40;;;;;;;4.68;2.17;;;21.00;99.90;;;;;;5084673;28;20044;-83
2023/07/12 10:09:33;;;;;;;6.80;2.28;;;21.10;99.90;;;;;;5089820;28;20122;-83
2023/07/12 10:12:11;;;;;;;8.75;2.65;;;21.30;99.90;;;;;;5095385;28;20528;-84
2023/07/12 10:14:40;;;;;;;6.35;2.50;;;21.00;99.90;;;;;;5093719;28;20043;-81
2023/07/12 10:17:42;;;;;;;6.22;2.10;;;20.70;99.90;;;;;;5110770;28;20050;-81
2023/07/12 10:20:18;;;;;;;5.47;2.35;;;20.60;99.90;;;;;;5101931;28;20075;-79
2023/07/12 10:22:45;;;;;;;7.60;2.92;;;20.30;99.90;;;;;;5110116;28;20048;-79
2023/07/12 10:25:27;;;;;;;6.40;2.80;;;20.10;99.90;;;;;;5110911;28;20413;-79
2023/07/12 10:28:21;;;;;;;6.57;2.90;;;20.00;99.90;;;;;;5111181;28;20108;-80
2023/07/12 10:30:49;;;;;;;8.63;2.92;;;20.00;99.90;;;;;;5110219;28;20043;-79
2023/07/12 10:33:33;;;;;;;4.38;2.60;;;20.10;99.90;;;;;;5108864;28;20040;-80
2023/07/12 10:36:04;;;;;;;6.07;2.65;;;20.50;99.90;;;;;;5109930;28;20120;-81
2023/07/12 10:38:31;;;;;;;4.90;2.10;;;20.90;99.90;;;;;;5110718;28;20497;-80
2023/07/12 10:41:18;;;;;;;5.22;2.08;;;21.20;99.90;;;;;;5093207;28;20047;-83
2023/07/12 10:44:01;;;;;;;4.35;2.03;;;21.40;99.90;;;;;;5110217;28;20063;-82
2023/07/12 10:46:34;;;;;;;5.57;2.15;;;21.60;99.90;;;;;;5109922;28;20453;-82
2023/07/12 10:49:09;;;;;;;6.10;2.50;;;21.30;99.90;;;;;;5091856;28;20044;-82
2023/07/12 10:51:41;;;;;;;4.85;1.90;;;21.80;99.90;;;;;;5089078;28;20063;-82
2023/07/12 10:54:25;;;;;;;;;;;21.90;99.90;;;;;;5091020;28;20416;-82
2023/07/12 10:56:55;;;;;;;4.65;2.00;;;22.00;99.90;;;;;;5089816;28;20243;-82
2023/07/12 10:59:33;;;;;;;4.57;1.90;;;22.20;99.90;;;;;;5089017;28;20035;-83
2023/07/12 11:02:04;;;;;;;5.03;2.22;;;22.10;99.90;;;;;;5110233;28;20051;-81
2023/07/12 11:04:30;;;;;;;3.85;2.08;;;22.10;99.90;;;;;;5091539;28;20044;-81
2023/07/12 11:07:27;;;;;;;3.95;2.03;;;21.90;99.90;;;;;;5110145;28;20055;-81
2023/07/12 11:09:54;;;;;;;3.92;1.80;;;21.90;99.90;;;;;;5092791;28;20126;-81
2023/07/12 11:12:39;;;;;;;5.80;1.98;;;21.90;99.90;;;;;;5106918;28;20158;-81
2023/07/12 11:15:19;;;;;;;4.28;1.88;;;21.90;99.90;;;;;;5089158;28;20181;-81
2023/07/12 11:17:52;;;;;;;4.80;2.15;;;21.80;99.90;;;;;;5088640;28;20097;-81
2023/07/12 11:20:27;;;;;;;3.05;1.70;;;21.50;99.90;;;;;;5071017;28;20040;-79
2023/07/12 11:22:59;;;;;;;3.97;2.35;;;21.80;99.90;;;;;;5088523;28;20282;-81
2023/07/12 11:25:29;;;;;;;3.95;2.05;;;21.60;99.90;;;;;;5072197;28;20040;-80
2023/07/12 11:28:01;;;;;;;3.53;2.40;;;21.60;99.90;;;;;;5071800;28;20043;-80
2023/07/12 11:30:27;;;;;;;6.38;2.22;;;21.50;99.90;;;;;;5088964;28;20497;-80
2023/07/12 11:32:59;;;;;;;5.32;2.40;;;21.40;99.90;;;;;;5071594;28;20064;-81
2023/07/12 11:35:51;;;;;;;5.15;2.30;;;21.40;99.90;;;;;;5107864;28;20505;-80
2023/07/12 11:38:22;;;;;;;4.15;2.13;;;21.20;99.90;;;;;;5108917;28;20040;-80
2023/07/12 11:40:51;;;;;;;3.47;1.77;;;21.20;99.90;;;;;;5107264;28;20051;-84
2023/07/12 11:43:23;;;;;;;3.42;1.30;;;21.40;99.90;;;;;;5110786;28;20309;-83
2023/07/12 11:45:49;;;;;;;5.60;1.60;;;21.60;99.90;;;;;;5108530;28;20788;-83
2023/07/12 11:48:15;;;;;;;2.83;1.40;;;21.90;99.90;;;;;;5092459;28;20050;-83
2023/07/12 11:50:41;;;;;;;2.00;1.42;;;22.10;99.90;;;;;;5091733;28;20043;-82
2023/07/12 11:53:11;;;;;;;3.50;1.50;;;22.10;99.90;;;;;;5110354;28;20493;-80
2023/07/12 11:55:39;;;;;;;5.13;1.70;;;22.40;99.90;;;;;;5110742;27;20088;-82
2023/07/12 11:58:19;;;;;;;1.90;1.50;;;22.60;99.90;;;;;;5109236;28;20561;-82
2023/07/12 12:00:48;;;;;;;4.60;2.05;;;22.70;99.90;;;;;;5108591;28;20150;-82
2023/07/12 12:03:15;;;;;;;3.10;1.45;;;23.10;99.90;;;;;;5109497;28;20040;-82
2023/07/12 12:05:41;;;;;;;3.17;1.58;;;22.80;99.90;;;;;;5109927;28;20036;-81
2023/07/12 12:08:17;;;;;;;3.83;1.63;;;22.50;99.90;;;;;;5109926;28;20031;-82
2023/07/12 12:10:45;;;;;;;4.72;1.38;;;22.50;99.90;;;;;;5078999;28;20123;-82
2023/07/12 12:13:20;;;;;;;4.53;1.95;;;22.80;99.90;;;;;;5089330;28;20048;-82
2023/07/12 12:16:04;;;;;;;4.15;1.42;;;22.90;99.90;;;;;;5089106;28;20040;-82
2023/07/12 12:18:30;;;;;;;2.55;1.58;;;22.60;99.90;;;;;;5071036;28;20055;-85
2023/07/12 12:21:00;;;;;;;2.70;1.63;;;22.80;99.90;;;;;;5087948;28;20422;-82
2023/07/12 12:23:38;;;;;;;3.55;1.92;;;23.00;99.90;;;;;;5071174;28;20692;-82
2023/07/12 12:26:36;;;;;;;4.60;1.55;;;22.80;99.90;;;;;;5087209;28;20127;-82
2023/07/12 12:29:12;;;;;;;2.92;1.70;;;22.90;99.90;;;;;;5070674;28;20505;-85
2023/07/12 12:31:51;;;;;;;4.03;1.48;;;23.20;99.90;;;;;;5087911;28;20040;-82
2023/07/12 12:34:18;;;;;;;4.38;1.38;;;23.40;99.80;;;;;;5089060;28;20078;-82
2023/07/12 12:37:07;;;;;;;3.95;1.27;;;23.10;99.90;;;;;;5087557;28;20047;-83
2023/07/12 12:39:34;;;;;;;2.22;1.10;;;23.20;99.00;;;;;;5086965;28;20154;-82
2023/07/12 12:42:06;;;;;;;2.45;1.33;;;23.40;99.20;;;;;;5087869;28;20040;-82
2023/07/12 12:44:36;;;;;;;2.55;1.20;;;23.10;98.40;;;;;;5088634;28;20047;-85
2023/07/12 12:47:13;;;;;;;2.30;1.23;;;23.10;98.30;;;;;;5087984;28;20050;-85
2023/07/12 12:49:39;;;;;;;2.50;1.30;;;22.90;97.20;;;;;;5070389;28;20052;-83
2023/07/12 12:52:28;;;;;;;3.20;1.42;;;22.80;97.50;;;;;;5087688;28;20387;-84
2023/07/12 12:54:59;;;;;;;2.35;1.23;;;23.00;95.20;;;;;;5088623;28;20443;-85